createdAt,value
2019-01-18T00:00:56.306Z,3.70
2019-01-18T00:03:23.816Z,3.60
2019-01-18T00:05:51.352Z,3.60
2019-01-18T00:08:18.827Z,3.50
2019-01-18T00:10:46.683Z,3.50
2019-01-18T00:13:14.243Z,3.30
2019-01-18T00:15:41.733Z,3.30
2019-01-18T00:18:09.548Z,3.30
2019-01-18T00:20:37.028Z,3.20
2019-01-18T00:23:04.846Z,3.10
2019-01-18T00:25:32.623Z,3.20
2019-01-18T00:28:00.147Z,3.10
2019-01-18T00:30:27.881Z,3.20
2019-01-18T00:32:55.438Z,3.20
2019-01-18T00:35:22.883Z,3.20
2019-01-18T00:37:50.375Z,3.10
2019-01-18T00:40:18.707Z,3.00
2019-01-18T00:42:46.233Z,2.90
2019-01-18T00:45:14.616Z,2.90
2019-01-18T00:47:42.100Z,3.00
2019-01-18T00:50:11.762Z,2.90
2019-01-18T00:52:39.328Z,2.80
2019-01-18T00:55:07.132Z,2.70
2019-01-18T00:57:34.661Z,2.60
2019-01-18T01:00:03.927Z,2.50
2019-01-18T01:02:31.475Z,2.50
2019-01-18T01:04:58.927Z,2.50
2019-01-18T01:07:26.405Z,2.60
2019-01-18T01:09:54.179Z,2.70
2019-01-18T01:12:21.664Z,2.70
2019-01-18T01:14:49.172Z,2.50
2019-01-18T01:17:16.696Z,2.60
2019-01-18T01:19:44.136Z,2.60
2019-01-18T01:22:11.632Z,2.50
2019-01-18T01:24:39.128Z,2.40
2019-01-18T01:27:06.612Z,2.40
2019-01-18T01:29:34.384Z,2.40
2019-01-18T01:32:01.932Z,2.50
2019-01-18T01:34:29.428Z,2.40
2019-01-18T01:36:57.277Z,2.60
2019-01-18T01:39:24.835Z,2.50
2019-01-18T01:41:52.347Z,2.50
2019-01-18T01:44:20.104Z,2.60
2019-01-18T01:46:50.504Z,2.60
2019-01-18T01:49:18.160Z,2.50
2019-01-18T01:51:45.915Z,2.50
2019-01-18T01:54:13.427Z,2.50
2019-01-18T01:56:40.905Z,2.60
2019-01-18T01:59:08.405Z,2.60
2019-01-18T02:01:36.165Z,2.70
2019-01-18T02:04:03.815Z,2.60
2019-01-18T02:06:31.331Z,2.60
2019-01-18T02:08:58.855Z,2.80
2019-01-18T02:11:26.368Z,2.70
2019-01-18T02:13:53.859Z,2.70
2019-01-18T02:16:21.331Z,2.80
2019-01-18T02:18:48.863Z,2.80
2019-01-18T02:21:16.357Z,2.80
2019-01-18T02:23:43.884Z,2.80
2019-01-18T02:26:11.659Z,2.80
2019-01-18T02:28:39.144Z,2.80
2019-01-18T02:31:06.703Z,2.80
2019-01-18T02:33:34.243Z,2.80
2019-01-18T02:36:01.935Z,2.70
2019-01-18T02:38:29.437Z,2.70
2019-01-18T02:40:56.948Z,2.70
2019-01-18T02:43:24.400Z,2.70
2019-01-18T02:45:51.960Z,2.60
2019-01-18T02:48:22.188Z,2.60
2019-01-18T02:50:49.980Z,2.60
2019-01-18T02:53:17.457Z,2.60
2019-01-18T02:55:45.008Z,2.70
2019-01-18T02:58:12.457Z,2.60
2019-01-18T03:00:39.961Z,2.60
2019-01-18T03:03:07.467Z,2.60
2019-01-18T03:05:35.108Z,2.60
2019-01-18T03:08:02.604Z,2.60
2019-01-18T03:10:30.336Z,2.60
2019-01-18T03:12:57.813Z,2.60
2019-01-18T03:15:25.314Z,2.70
2019-01-18T03:17:52.886Z,2.60
2019-01-18T03:20:20.731Z,2.50
2019-01-18T03:22:48.202Z,2.50
2019-01-18T03:25:18.212Z,2.60
2019-01-18T03:27:45.667Z,2.60
2019-01-18T03:30:18.462Z,2.70
2019-01-18T03:32:44.194Z,2.70
2019-01-18T03:35:13.064Z,2.70
2019-01-18T03:37:40.549Z,2.60
2019-01-18T03:40:09.677Z,2.60
2019-01-18T03:42:37.587Z,2.50
2019-01-18T03:45:06.662Z,2.50
2019-01-18T03:47:34.150Z,2.50
2019-01-18T03:50:01.866Z,2.60
2019-01-18T03:52:29.365Z,2.60
2019-01-18T03:54:57.039Z,2.60
2019-01-18T03:57:24.541Z,2.60
2019-01-18T03:59:52.070Z,2.50
2019-01-18T04:02:19.550Z,2.60
2019-01-18T04:04:47.070Z,2.70
2019-01-18T04:07:14.545Z,2.70
2019-01-18T04:09:42.032Z,2.80
2019-01-18T04:12:09.569Z,2.90
2019-01-18T04:14:37.217Z,2.80
2019-01-18T04:17:04.697Z,2.90
2019-01-18T04:19:32.252Z,3.00
2019-01-18T04:21:59.719Z,3.00
2019-01-18T04:24:27.388Z,3.00
2019-01-18T04:26:55.020Z,3.00
2019-01-18T04:29:22.564Z,3.00
2019-01-18T04:31:50.128Z,3.00
2019-01-18T04:34:17.760Z,3.00
2019-01-18T04:36:45.770Z,3.10
2019-01-18T04:39:13.528Z,3.20
2019-01-18T04:41:41.285Z,3.20
2019-01-18T04:44:08.902Z,3.20
2019-01-18T04:46:36.472Z,3.20
2019-01-18T04:49:04.119Z,3.20
2019-01-18T04:51:33.873Z,3.20
2019-01-18T04:54:02.043Z,3.10
2019-01-18T04:56:29.753Z,3.10
2019-01-18T04:58:58.008Z,3.10
2019-01-18T05:01:25.578Z,3.00
2019-01-18T05:03:53.128Z,2.80
2019-01-18T05:06:20.657Z,2.70
2019-01-18T05:08:48.215Z,2.80
2019-01-18T05:11:16.583Z,2.80
2019-01-18T05:13:44.128Z,2.70
2019-01-18T05:16:11.920Z,2.60
2019-01-18T05:18:39.512Z,2.60
2019-01-18T05:21:07.474Z,2.60
2019-01-18T05:23:35.364Z,2.60
2019-01-18T05:26:03.638Z,2.60
2019-01-18T05:28:31.167Z,2.70
2019-01-18T05:30:58.695Z,2.70
2019-01-18T05:33:26.252Z,2.70
2019-01-18T05:35:53.907Z,2.60
2019-01-18T05:38:21.640Z,2.60
2019-01-18T05:40:49.487Z,2.60
2019-01-18T05:43:17.355Z,2.60
2019-01-18T05:45:45.180Z,2.70
2019-01-18T05:48:12.932Z,2.80
2019-01-18T05:50:40.821Z,2.70
2019-01-18T05:53:09.283Z,2.80
2019-01-18T05:55:37.112Z,2.70
2019-01-18T05:58:05.138Z,2.70
2019-01-18T06:00:37.763Z,2.70
2019-01-18T06:03:05.764Z,2.80
2019-01-18T06:05:35.366Z,2.70
2019-01-18T06:08:06.765Z,2.70
2019-01-18T06:10:34.609Z,2.70
2019-01-18T06:13:02.206Z,2.70
2019-01-18T06:15:30.120Z,2.70
2019-01-18T06:17:59.767Z,2.80
2019-01-18T06:20:28.596Z,2.90
2019-01-18T06:22:56.357Z,3.00
2019-01-18T06:25:24.776Z,3.00
2019-01-18T06:27:52.394Z,2.90
2019-01-18T06:30:28.797Z,2.80
2019-01-18T06:32:56.801Z,2.80
2019-01-18T06:35:24.597Z,2.80
2019-01-18T06:37:52.265Z,2.70
2019-01-18T06:40:20.043Z,2.70
2019-01-18T06:42:47.937Z,2.70
2019-01-18T06:45:28.299Z,2.60
2019-01-18T06:47:56.109Z,2.60
2019-01-18T06:50:23.989Z,2.60
2019-01-18T06:53:15.019Z,2.70
2019-01-18T06:55:42.929Z,2.80
2019-01-18T06:58:10.522Z,2.90
2019-01-18T07:00:38.336Z,2.90
2019-01-18T07:03:05.952Z,3.00
2019-01-18T07:05:33.488Z,3.00
2019-01-18T07:08:01.242Z,3.00
2019-01-18T07:10:30.448Z,2.90
2019-01-18T07:12:58.205Z,3.00
2019-01-18T07:15:26.053Z,2.90
2019-01-18T07:17:53.733Z,2.90
2019-01-18T07:20:21.260Z,2.90
2019-01-18T07:22:49.721Z,2.90
2019-01-18T07:25:28.206Z,2.70
2019-01-18T07:27:55.928Z,2.70
2019-01-18T07:30:37.837Z,2.70
2019-01-18T07:33:08.035Z,2.70
2019-01-18T07:35:35.609Z,2.70
2019-01-18T07:38:03.282Z,2.90
2019-01-18T07:40:30.915Z,3.00
2019-01-18T07:42:58.404Z,3.00
2019-01-18T07:45:27.079Z,3.10
2019-01-18T07:47:54.672Z,3.10
2019-01-18T07:50:22.143Z,3.00
2019-01-18T07:52:49.988Z,3.00
2019-01-18T07:55:17.505Z,3.10
2019-01-18T07:57:44.990Z,3.20
2019-01-18T08:00:15.472Z,3.00
2019-01-18T08:02:42.987Z,3.00
2019-01-18T08:05:10.444Z,2.90
2019-01-18T08:07:38.189Z,2.70
2019-01-18T08:10:09.168Z,2.60
2019-01-18T08:12:36.627Z,2.70
2019-01-18T08:15:05.145Z,2.90
2019-01-18T08:17:32.600Z,2.90
2019-01-18T08:20:00.164Z,2.80
2019-01-18T08:22:27.545Z,3.00
2019-01-18T08:24:55.040Z,2.80
2019-01-18T08:27:22.507Z,2.80
2019-01-18T08:29:49.992Z,2.90
2019-01-18T08:32:17.448Z,3.00
2019-01-18T08:34:45.055Z,3.20
2019-01-18T08:37:12.592Z,3.30
2019-01-18T08:39:40.313Z,3.30
2019-01-18T08:42:07.887Z,3.30
2019-01-18T08:44:35.624Z,3.40
2019-01-18T08:47:03.465Z,3.40
2019-01-18T08:49:31.140Z,3.50
2019-01-18T08:51:59.368Z,3.50
2019-01-18T08:54:27.220Z,3.50
2019-01-18T08:56:54.912Z,3.50
2019-01-18T08:59:22.849Z,3.50
2019-01-18T09:01:50.456Z,3.40
2019-01-18T09:04:17.984Z,3.30
2019-01-18T09:06:45.473Z,3.10
2019-01-18T09:09:12.965Z,2.90
2019-01-18T09:11:40.510Z,3.00
2019-01-18T09:14:08.028Z,3.00
2019-01-18T09:16:35.612Z,3.10
2019-01-18T09:19:03.174Z,3.00
2019-01-18T09:21:30.632Z,3.00
2019-01-18T09:23:58.124Z,2.90
2019-01-18T09:26:26.064Z,2.90
2019-01-18T09:28:53.692Z,2.90
2019-01-18T09:31:21.180Z,3.00
2019-01-18T09:33:48.780Z,2.90
2019-01-18T09:36:16.248Z,2.80
2019-01-18T09:38:43.725Z,2.80
2019-01-18T09:41:11.160Z,2.80
2019-01-18T09:43:38.616Z,2.90
2019-01-18T09:46:06.369Z,2.90
2019-01-18T09:48:33.896Z,3.50
2019-01-18T09:51:01.354Z,3.80
2019-01-18T09:53:28.822Z,4.20
2019-01-18T09:55:56.324Z,4.30
2019-01-18T09:58:23.825Z,4.00
2019-01-18T10:00:51.655Z,3.90
2019-01-18T10:03:19.498Z,3.80
2019-01-18T10:05:48.084Z,3.80
2019-01-18T10:08:15.911Z,3.60
2019-01-18T10:10:44.200Z,3.60
2019-01-18T10:13:12.239Z,3.60
2019-01-18T10:15:44.948Z,3.70
2019-01-18T10:18:13.727Z,3.50
2019-01-18T10:20:42.043Z,3.50
2019-01-18T10:23:10.017Z,3.60
2019-01-18T10:25:37.650Z,3.60
2019-01-18T10:28:05.350Z,3.60
2019-01-18T10:30:33.281Z,3.50
2019-01-18T10:33:01.046Z,3.50
2019-01-18T10:35:28.716Z,3.60
2019-01-18T10:37:56.456Z,3.70
2019-01-18T10:40:24.497Z,3.70
2019-01-18T10:42:52.272Z,3.80
2019-01-18T10:45:20.344Z,3.80
2019-01-18T10:47:48.259Z,3.80
2019-01-18T10:50:18.005Z,3.80
2019-01-18T10:52:45.945Z,3.80
2019-01-18T10:55:13.428Z,4.00
2019-01-18T10:57:41.102Z,4.10
2019-01-18T11:00:21.681Z,4.10
2019-01-18T11:02:50.017Z,4.00
2019-01-18T11:05:17.883Z,4.10
2019-01-18T11:07:45.484Z,4.10
2019-01-18T11:10:13.188Z,4.00
2019-01-18T11:12:40.868Z,4.10
2019-01-18T11:15:10.472Z,4.00
2019-01-18T11:17:38.088Z,4.00
2019-01-18T11:20:09.959Z,4.00
2019-01-18T11:22:37.533Z,4.10
2019-01-18T11:25:06.034Z,4.20
2019-01-18T11:27:33.789Z,4.40
2019-01-18T11:30:01.785Z,4.40
2019-01-18T11:32:29.509Z,4.30
2019-01-18T11:34:57.433Z,4.30
2019-01-18T11:37:25.040Z,4.40
2019-01-18T11:39:53.649Z,4.50
2019-01-18T11:42:21.217Z,4.40
2019-01-18T11:44:48.748Z,4.10
2019-01-18T11:47:16.321Z,4.10
2019-01-18T11:49:43.787Z,4.10
2019-01-18T11:52:11.689Z,4.10
2019-01-18T11:54:39.457Z,4.10
2019-01-18T11:57:07.012Z,4.20
2019-01-18T11:59:34.794Z,4.30
2019-01-18T12:02:03.056Z,4.20
2019-01-18T12:04:30.502Z,4.20
2019-01-18T12:06:58.085Z,4.30
2019-01-18T12:09:25.988Z,4.40
2019-01-18T12:11:53.480Z,4.20
2019-01-18T12:14:20.992Z,4.10
2019-01-18T12:16:50.278Z,4.10
2019-01-18T12:19:18.709Z,4.20
2019-01-18T12:21:47.939Z,4.30
2019-01-18T12:24:18.059Z,4.00
2019-01-18T12:26:46.224Z,3.80
2019-01-18T12:29:14.803Z,3.80
2019-01-18T12:31:43.574Z,3.60
2019-01-18T12:34:11.954Z,3.30
2019-01-18T12:36:39.928Z,3.10
2019-01-18T12:39:10.025Z,2.90
2019-01-18T12:41:38.671Z,2.90
2019-01-18T12:44:07.056Z,2.80
2019-01-18T12:46:35.628Z,2.80
2019-01-18T12:49:04.556Z,3.00
2019-01-18T12:51:34.045Z,3.20
2019-01-18T12:54:08.405Z,3.30
2019-01-18T12:59:47.914Z,3.20
2019-01-18T13:02:16.042Z,3.10
2019-01-18T13:04:43.751Z,3.20
2019-01-18T13:07:11.304Z,3.20
2019-01-18T13:09:39.023Z,3.30
2019-01-18T13:12:07.809Z,3.40
2019-01-18T13:14:35.737Z,3.50
2019-01-18T13:17:03.802Z,3.70
2019-01-18T13:19:31.855Z,3.80
2019-01-18T13:22:00.777Z,3.80
2019-01-18T13:24:28.763Z,3.80
2019-01-18T13:26:58.614Z,3.80
2019-01-18T13:29:50.701Z,3.80
2019-01-18T13:32:24.945Z,3.60
2019-01-18T13:34:59.405Z,3.50
2019-01-18T13:37:27.994Z,3.50
2019-01-18T13:39:56.483Z,3.60
2019-01-18T13:42:24.302Z,3.60
2019-01-18T13:44:52.865Z,3.60
2019-01-18T13:47:21.519Z,3.70
2019-01-18T13:49:52.795Z,3.60
2019-01-18T13:52:21.258Z,3.70
2019-01-18T13:54:49.425Z,3.70
2019-01-18T13:57:18.219Z,3.80
2019-01-18T13:59:46.354Z,3.90
2019-01-18T14:02:14.798Z,4.00
2019-01-18T14:04:42.841Z,4.00
2019-01-18T14:07:10.904Z,4.10
2019-01-18T14:09:39.237Z,4.20
2019-01-18T14:12:07.619Z,4.20
2019-01-18T14:14:35.675Z,4.20
2019-01-18T14:17:03.217Z,4.10
2019-01-18T14:19:31.466Z,4.10
2019-01-18T14:21:59.429Z,4.20
2019-01-18T14:24:29.973Z,4.20
2019-01-18T14:26:57.600Z,4.20
2019-01-18T14:29:25.749Z,4.10
2019-01-18T14:31:53.409Z,4.00
2019-01-18T14:34:21.656Z,4.00
2019-01-18T14:36:52.833Z,4.00
2019-01-18T14:39:20.481Z,4.10
2019-01-18T14:42:03.135Z,4.10
2019-01-18T14:44:31.379Z,4.00
2019-01-18T14:47:04.979Z,4.10
2019-01-18T14:49:43.243Z,4.20
2019-01-18T14:52:33.953Z,4.20
2019-01-18T14:55:03.687Z,4.10
2019-01-18T14:57:31.811Z,4.10
2019-01-18T15:00:01.081Z,4.10
2019-01-18T15:02:32.659Z,4.10
2019-01-18T15:05:08.679Z,4.10
2019-01-18T15:07:38.564Z,4.10
2019-01-18T15:10:09.478Z,4.10
2019-01-18T15:12:37.445Z,4.00
2019-01-18T15:15:07.480Z,4.00
2019-01-18T15:17:53.162Z,4.00
2019-01-18T15:20:25.399Z,4.00
2019-01-18T15:22:55.088Z,3.70
2019-01-18T15:25:22.909Z,3.60
2019-01-18T15:28:00.966Z,3.60
2019-01-18T15:30:32.786Z,3.70
2019-01-18T15:33:09.019Z,3.70
2019-01-18T15:35:37.063Z,3.90
2019-01-18T15:38:27.971Z,3.90
2019-01-18T15:41:07.682Z,4.00
2019-01-18T15:43:35.447Z,4.10
2019-01-18T15:46:04.032Z,4.00
2019-01-18T15:48:52.072Z,3.90
2019-01-18T15:51:21.614Z,3.90
2019-01-18T15:53:53.196Z,3.80
2019-01-18T15:56:21.163Z,3.90
2019-01-18T15:58:48.722Z,3.80
2019-01-18T16:01:19.376Z,3.80
2019-01-18T16:03:51.956Z,3.90
2019-01-18T16:06:30.071Z,4.00
2019-01-18T16:08:59.314Z,3.80
2019-01-18T16:11:27.116Z,3.80
2019-01-18T16:13:59.153Z,3.80
2019-01-18T16:16:31.288Z,3.90
2019-01-18T16:19:00.103Z,3.90
2019-01-18T16:21:29.942Z,4.00
2019-01-18T16:23:58.137Z,4.00
2019-01-18T16:26:25.636Z,4.00
2019-01-18T16:28:53.097Z,4.00
2019-01-18T16:31:20.597Z,4.00
2019-01-18T16:33:48.426Z,4.10
2019-01-18T16:36:31.760Z,4.10
2019-01-18T16:38:59.293Z,4.00
2019-01-18T16:41:32.696Z,3.90
2019-01-18T16:44:00.261Z,3.90
2019-01-18T16:46:28.051Z,3.80
2019-01-18T16:48:55.516Z,3.70
2019-01-18T16:51:23.129Z,3.60
2019-01-18T16:53:50.664Z,3.60
2019-01-18T16:56:18.620Z,3.60
2019-01-18T16:58:46.096Z,3.60
2019-01-18T17:01:14.592Z,3.60
2019-01-18T17:03:46.344Z,3.40
2019-01-18T17:06:15.010Z,3.40
2019-01-18T17:08:43.349Z,3.30
2019-01-18T17:11:11.495Z,3.30
2019-01-18T17:13:47.490Z,3.30
2019-01-18T17:16:16.045Z,3.30
2019-01-18T17:18:43.988Z,3.30
2019-01-18T17:22:25.260Z,3.30
2019-01-18T17:27:46.675Z,3.40
2019-01-18T17:30:26.901Z,3.40
2019-01-18T17:32:58.407Z,3.50
2019-01-18T17:35:39.481Z,3.40
2019-01-18T17:38:48.565Z,3.30
2019-01-18T17:42:12.059Z,3.00
2019-01-18T17:56:40.390Z,3.00
2019-01-18T18:00:01.739Z,2.70
2019-01-18T18:03:11.808Z,2.70
2019-01-18T18:06:02.365Z,2.70
2019-01-18T18:08:56.135Z,2.80
2019-01-18T18:12:17.722Z,2.40
2019-01-18T18:15:31.553Z,2.30
2019-01-18T18:18:10.009Z,2.20
2019-01-18T18:21:33.608Z,2.20
2019-01-18T18:25:09.022Z,2.20
2019-01-18T18:28:35.885Z,2.10
2019-01-18T18:31:50.412Z,2.10
2019-01-18T18:35:17.945Z,2.00
2019-01-18T18:38:54.586Z,1.80
2019-01-18T18:57:46.275Z,1.60
2019-01-18T19:00:59.027Z,1.70
2019-01-18T19:29:17.921Z,1.50
2019-01-18T19:36:19.472Z,1.60
2019-01-18T19:39:53.581Z,1.50
2019-01-18T19:43:25.354Z,1.60
2019-01-18T19:46:28.469Z,1.50
2019-01-18T19:49:46.657Z,1.60
2019-01-18T19:52:36.720Z,1.50
2019-01-18T19:55:47.989Z,1.40
2019-01-18T19:58:57.038Z,1.40
2019-01-18T20:02:44.854Z,1.30
2019-01-18T20:13:53.654Z,1.30
2019-01-18T20:21:06.801Z,0.90
2019-01-18T20:24:37.687Z,0.90
2019-01-18T20:39:54.629Z,1.00
2019-01-18T20:59:13.079Z,1.30
2019-01-18T21:23:19.334Z,1.30
2019-01-18T21:26:31.589Z,1.20
2019-01-18T21:41:38.739Z,0.70
2019-01-18T21:45:07.531Z,0.60
2019-01-18T21:48:38.598Z,0.50
2019-01-18T22:09:34.962Z,0.80
2019-01-18T22:16:16.059Z,0.80
2019-01-18T22:19:33.571Z,0.70
2019-01-18T22:22:49.098Z,0.70
2019-01-18T22:26:25.673Z,0.80
2019-01-18T22:33:37.580Z,0.90
2019-01-18T22:37:08.881Z,1.00
2019-01-18T22:40:38.714Z,0.80
2019-01-18T22:44:07.509Z,0.80
2019-01-18T22:55:08.497Z,0.90
2019-01-18T23:05:10.928Z,0.90
2019-01-18T23:08:29.412Z,0.90
2019-01-18T23:11:48.801Z,1.00
2019-01-18T23:15:15.871Z,0.90
2019-01-18T23:18:16.203Z,0.70
2019-01-18T23:21:39.398Z,0.70
2019-01-18T23:24:42.550Z,0.70
2019-01-18T23:27:49.268Z,0.80
2019-01-18T23:30:48.801Z,0.60
2019-01-18T23:33:57.090Z,0.60
2019-01-18T23:36:53.533Z,0.60
2019-01-18T23:40:11.537Z,0.70
2019-01-18T23:43:16.397Z,0.80
2019-01-18T23:46:29.005Z,0.70
2019-01-18T23:49:30.429Z,0.70
2019-01-18T23:53:44.128Z,0.70
